Time;durP1;ratioP1;P1;durP2;ratioP2;P2;SDS_P1;SDS_P2;PMS_P1;PMS_P2;Temp;Humidity;BMP_temperature;BMP_pressure;BME280_temperature;BME280_humidity;BME280_pressure;Samples;Min_cycle;Max_cycle;Signal;HPM_P1;HPM_P2
2023/01/05 00:04:17;;;;;;;1.70;0.60;;;;;;;;;;10357478;28;20068;-76
2023/01/05 00:09:20;;;;;;;0.55;0.45;;;;;;;;;;10345200;28;20436;-75
2023/01/05 00:25:06;;;;;;;0.20;0.20;;;;;;;;;;10354615;28;20291;-76
2023/01/05 00:30:15;;;;;;;0.35;0.35;;;;;;;;;;10359200;28;20065;-76
2023/01/05 00:35:19;;;;;;;0.65;0.32;;;;;;;;;;10361198;28;20061;-76
2023/01/05 00:40:22;;;;;;;0.75;0.30;;;;;;;;;;10355529;28;20166;-75
2023/01/05 00:45:25;;;;;;;0.70;0.30;;;;;;;;;;10361087;28;20038;-75
2023/01/05 00:50:29;;;;;;;0.30;0.30;;;;;;;;;;10360299;28;20053;-76
2023/01/05 00:55:32;;;;;;;0.25;0.25;;;;;;;;;;10359192;28;20073;-76
2023/01/05 01:00:35;;;;;;;0.90;0.40;;;;;;;;;;10355378;28;20053;-77
2023/01/05 01:05:44;;;;;;;0.88;0.28;;;;;;;;;;10354297;28;20053;-77
2023/01/05 01:10:46;;;;;;;0.85;0.10;;;;;;;;;;10363253;28;20049;-77
2023/01/05 01:15:49;;;;;;;0.20;0.20;;;;;;;;;;10351003;28;20057;-77
2023/01/05 01:20:53;;;;;;;0.80;0.30;;;;;;;;;;10351520;28;20043;-76
2023/01/05 01:25:56;;;;;;;0.30;0.30;;;;;;;;;;10345478;28;20053;-75
2023/01/05 01:30:59;;;;;;;0.20;0.17;;;;;;;;;;10358973;28;20053;-77
2023/01/05 01:36:05;;;;;;;0.20;0.20;;;;;;;;;;10352756;28;20041;-77
2023/01/05 01:41:07;;;;;;;0.10;0.10;;;;;;;;;;10353314;28;20476;-77
2023/01/05 01:46:11;;;;;;;0.17;0.17;;;;;;;;;;10353151;28;20046;-77
2023/01/05 01:51:17;;;;;;;0.47;0.30;;;;;;;;;;10360132;28;20099;-76
2023/01/05 01:56:22;;;;;;;1.27;0.30;;;;;;;;;;10355479;28;20466;-76
2023/01/05 02:01:25;;;;;;;0.10;0.10;;;;;;;;;;10357660;28;20042;-76
2023/01/05 02:06:29;;;;;;;0.13;0.10;;;;;;;;;;10342917;28;20048;-77
2023/01/05 02:11:38;;;;;;;0.32;0.30;;;;;;;;;;10352162;28;20041;-76
2023/01/05 02:16:46;;;;;;;0.20;0.20;;;;;;;;;;10369348;28;20053;-76
2023/01/05 02:21:57;;;;;;;0.50;0.30;;;;;;;;;;10349353;28;20057;-76
2023/01/05 02:27:17;;;;;;;0.40;0.20;;;;;;;;;;10349658;28;20408;-75
2023/01/05 02:32:22;;;;;;;0.85;0.10;;;;;;;;;;10353562;28;20046;-75
2023/01/05 02:37:28;;;;;;;0.30;0.10;;;;;;;;;;10351568;28;20050;-76
2023/01/05 02:42:33;;;;;;;0.10;0.10;;;;;;;;;;10349998;28;20050;-75
2023/01/05 02:47:37;;;;;;;0.17;0.17;;;;;;;;;;10357250;28;20124;-77
2023/01/05 02:52:43;;;;;;;0.43;0.28;;;;;;;;;;10349904;28;20111;-75
2023/01/05 02:57:49;;;;;;;0.00;0.00;;;;;;;;;;10354326;28;20085;-75
2023/01/05 03:02:55;;;;;;;0.45;0.30;;;;;;;;;;10352643;28;20444;-76
2023/01/05 03:08:05;;;;;;;0.20;0.20;;;;;;;;;;10347792;28;20041;-76
2023/01/05 03:18:31;;;;;;;0.20;0.20;;;;;;;;;;10348404;28;20083;-76
2023/01/05 03:39:40;;;;;;;0.30;0.20;;;;;;;;;;10348047;28;20045;-77
2023/01/05 03:44:44;;;;;;;0.20;0.20;;;;;;;;;;10354932;28;20551;-76
2023/01/05 03:49:47;;;;;;;;;;;;;;;;;;10360253;28;20046;-75
2023/01/05 03:54:51;;;;;;;1.58;0.50;;;;;;;;;;10346621;28;20075;-75
2023/01/05 03:59:54;;;;;;;1.98;0.10;;;;;;;;;;10342721;28;20046;-75
2023/01/05 04:04:56;;;;;;;0.28;0.28;;;;;;;;;;10345028;28;20050;-76
2023/01/05 04:10:00;;;;;;;1.02;0.10;;;;;;;;;;10358901;28;20104;-76
2023/01/05 04:15:02;;;;;;;;;;;;;;;;;;10352374;28;20042;-77
2023/01/05 04:20:05;;;;;;;0.20;0.20;;;;;;;;;;10359615;28;19929;-76
2023/01/05 04:25:10;;;;;;;0.22;0.17;;;;;;;;;;10352078;28;20173;-76
2023/01/05 04:30:12;;;;;;;;;;;;;;;;;;10349634;28;20046;-76
2023/01/05 04:35:15;;;;;;;2.63;0.30;;;;;;;;;;10358339;28;19941;-75
2023/01/05 04:40:18;;;;;;;0.20;0.20;;;;;;;;;;10351192;28;20049;-76
2023/01/05 04:45:21;;;;;;;0.20;0.20;;;;;;;;;;10347295;28;20550;-75
2023/01/05 04:50:24;;;;;;;0.47;0.28;;;;;;;;;;10348682;28;20182;-76
2023/01/05 04:55:28;;;;;;;0.57;0.30;;;;;;;;;;10355006;28;20038;-76
2023/01/05 05:00:31;;;;;;;0.30;0.20;;;;;;;;;;10358783;28;20045;-77
2023/01/05 05:05:34;;;;;;;0.33;0.33;;;;;;;;;;10353217;28;20039;-76
2023/01/05 05:10:38;;;;;;;0.15;0.10;;;;;;;;;;10350654;28;20376;-76
2023/01/05 05:15:40;;;;;;;0.30;0.30;;;;;;;;;;10355085;28;20523;-75
2023/01/05 05:20:45;;;;;;;0.20;0.20;;;;;;;;;;10353747;28;20053;-76
2023/01/05 05:25:51;;;;;;;0.47;0.40;;;;;;;;;;10362160;28;20084;-76
2023/01/05 05:30:53;;;;;;;0.50;0.30;;;;;;;;;;10357024;28;20050;-75
2023/01/05 05:35:56;;;;;;;0.28;0.28;;;;;;;;;;10371053;28;20070;-76
2023/01/05 05:41:00;;;;;;;0.30;0.30;;;;;;;;;;10356350;28;20046;-76
2023/01/05 05:46:03;;;;;;;0.35;0.35;;;;;;;;;;10355500;28;20178;-76
2023/01/05 05:51:06;;;;;;;0.47;0.20;;;;;;;;;;10352881;28;20145;-76
2023/01/05 05:56:10;;;;;;;0.65;0.40;;;;;;;;;;10351924;28;20474;-76
2023/01/05 06:01:12;;;;;;;0.43;0.40;;;;;;;;;;10348360;28;20121;-76
2023/01/05 06:06:15;;;;;;;0.68;0.60;;;;;;;;;;10361605;28;20571;-76
2023/01/05 06:11:19;;;;;;;0.45;0.40;;;;;;;;;;10350876;28;20044;-75
2023/01/05 06:16:22;;;;;;;;;;;;;;;;;;10351900;28;20026;-75
2023/01/05 06:21:24;;;;;;;0.50;0.50;;;;;;;;;;10351888;28;20025;-74
2023/01/05 06:26:28;;;;;;;0.40;0.40;;;;;;;;;;10345279;28;20046;-75
2023/01/05 06:31:31;;;;;;;;;;;;;;;;;;10352302;28;20049;-76
2023/01/05 06:36:33;;;;;;;0.50;0.50;;;;;;;;;;10357822;28;19926;-76
2023/01/05 06:41:37;;;;;;;1.27;0.22;;;;;;;;;;10346078;28;20045;-75
2023/01/05 06:46:40;;;;;;;0.20;0.20;;;;;;;;;;10347037;28;20050;-76
2023/01/05 06:51:43;;;;;;;0.38;0.38;;;;;;;;;;10349180;28;20037;-76
2023/01/05 06:56:47;;;;;;;0.38;0.38;;;;;;;;;;10351581;28;20492;-75
2023/01/05 07:01:49;;;;;;;0.82;0.30;;;;;;;;;;10348440;28;20112;-76
2023/01/05 07:06:52;;;;;;;0.70;0.70;;;;;;;;;;10347096;28;20091;-75
2023/01/05 07:11:56;;;;;;;0.75;0.38;;;;;;;;;;10348376;28;20454;-75
2023/01/05 07:16:59;;;;;;;0.22;0.22;;;;;;;;;;10348165;28;20057;-76
2023/01/05 07:22:01;;;;;;;0.40;0.40;;;;;;;;;;10350374;28;20068;-75
2023/01/05 07:27:06;;;;;;;0.40;0.30;;;;;;;;;;10355829;28;20508;-76
2023/01/05 07:32:11;;;;;;;0.30;0.30;;;;;;;;;;10351896;28;20299;-76
2023/01/05 07:37:14;;;;;;;0.50;0.45;;;;;;;;;;10355903;28;20046;-76
2023/01/05 07:42:18;;;;;;;0.30;0.30;;;;;;;;;;10340736;28;20078;-76
2023/01/05 07:47:21;;;;;;;1.45;0.30;;;;;;;;;;10350322;28;20045;-75
2023/01/05 07:52:23;;;;;;;0.37;0.30;;;;;;;;;;10350301;28;20069;-74
2023/01/05 07:57:27;;;;;;;0.40;0.30;;;;;;;;;;10357708;28;20034;-75
2023/01/05 08:02:30;;;;;;;0.30;0.30;;;;;;;;;;10337394;28;20088;-75
2023/01/05 08:07:37;;;;;;;0.47;0.32;;;;;;;;;;10339375;28;20048;-75
2023/01/05 08:17:58;;;;;;;0.20;0.20;;;;;;;;;;10354404;28;20069;-76
2023/01/05 08:23:00;;;;;;;0.93;0.50;;;;;;;;;;10345622;28;20038;-75
2023/01/05 08:28:04;;;;;;;0.30;0.30;;;;;;;;;;10351492;28;20042;-75
2023/01/05 08:33:06;;;;;;;;;;;;;;;;;;10355086;28;20257;-75
2023/01/05 08:38:09;;;;;;;0.40;0.40;;;;;;;;;;10353167;28;20029;-75
2023/01/05 08:43:13;;;;;;;0.80;0.40;;;;;;;;;;10359392;28;20419;-75
2023/01/05 08:48:16;;;;;;;0.40;0.40;;;;;;;;;;10351112;28;20060;-75
2023/01/05 08:53:18;;;;;;;0.80;0.50;;;;;;;;;;10348774;28;20042;-75
2023/01/05 08:58:23;;;;;;;0.40;0.40;;;;;;;;;;10349835;28;20151;-75
2023/01/05 09:03:25;;;;;;;;;;;;;;;;;;10350782;28;20053;-75
2023/01/05 09:08:28;;;;;;;3.08;0.80;;;;;;;;;;10353911;28;20037;-76
2023/01/05 09:13:32;;;;;;;1.50;0.70;;;;;;;;;;10354184;28;20065;-76
2023/01/05 09:18:34;;;;;;;0.65;0.47;;;;;;;;;;10353578;28;20050;-74
2023/01/05 09:23:38;;;;;;;0.30;0.30;;;;;;;;;;10364854;28;20050;-75
2023/01/05 09:28:42;;;;;;;1.83;0.30;;;;;;;;;;10358352;28;20058;-75
2023/01/05 09:33:44;;;;;;;;;;;;;;;;;;10346202;28;20053;-75
2023/01/05 09:38:48;;;;;;;0.95;0.60;;;;;;;;;;10354155;28;19921;-75
2023/01/05 09:43:55;;;;;;;0.40;0.40;;;;;;;;;;10348322;28;20053;-75
2023/01/05 09:48:59;;;;;;;1.70;0.50;;;;;;;;;;10353905;28;20046;-76
2023/01/05 09:54:02;;;;;;;0.38;0.30;;;;;;;;;;10346869;28;20136;-76
2023/01/05 09:59:08;;;;;;;1.15;0.40;;;;;;;;;;10350937;28;20049;-76
2023/01/05 10:04:13;;;;;;;0.30;0.30;;;;;;;;;;10350406;28;20498;-76
2023/01/05 10:09:17;;;;;;;0.30;0.30;;;;;;;;;;10337760;28;20603;-77
2023/01/05 10:14:24;;;;;;;0.38;0.30;;;;;;;;;;10345557;28;20041;-76
2023/01/05 10:19:28;;;;;;;0.55;0.20;;;;;;;;;;10345885;28;20058;-75
2023/01/05 10:24:38;;;;;;;1.50;0.35;;;;;;;;;;10345191;28;20041;-76
2023/01/05 10:29:44;;;;;;;0.30;0.30;;;;;;;;;;10339363;28;20466;-73
2023/01/05 10:34:54;;;;;;;0.77;0.40;;;;;;;;;;10343642;28;20396;-75
2023/01/05 10:40:02;;;;;;;0.80;0.32;;;;;;;;;;10343112;28;20699;-75
2023/01/05 10:45:09;;;;;;;1.02;0.38;;;;;;;;;;10344647;28;20514;-75
2023/01/05 10:50:24;;;;;;;0.40;0.30;;;;;;;;;;10341540;28;20045;-76
2023/01/05 10:55:28;;;;;;;1.25;0.30;;;;;;;;;;10340587;28;20038;-75
2023/01/05 11:00:42;;;;;;;0.40;0.40;;;;;;;;;;10345447;28;20685;-74
2023/01/05 11:05:46;;;;;;;0.10;0.10;;;;;;;;;;10341416;28;20225;-76
2023/01/05 11:10:51;;;;;;;0.55;0.20;;;;;;;;;;10343352;28;20046;-76
2023/01/05 11:15:56;;;;;;;0.63;0.40;;;;;;;;;;10351113;28;20053;-75
2023/01/05 11:21:07;;;;;;;0.52;0.40;;;;;;;;;;10339751;28;20049;-75
2023/01/05 11:26:33;;;;;;;2.97;0.40;;;;;;;;;;10345938;28;20147;-76
2023/01/05 11:31:41;;;;;;;0.50;0.35;;;;;;;;;;10351783;28;20034;-75
2023/01/05 11:36:50;;;;;;;0.32;0.25;;;;;;;;;;10353428;28;20137;-76
2023/01/05 11:42:04;;;;;;;0.45;0.40;;;;;;;;;;10348327;28;20046;-75
2023/01/05 11:47:08;;;;;;;1.60;0.40;;;;;;;;;;10347681;28;20033;-76
2023/01/05 11:52:24;;;;;;;0.68;0.35;;;;;;;;;;10350685;28;20296;-75
2023/01/05 11:57:27;;;;;;;1.40;0.40;;;;;;;;;;10354563;28;20038;-75
2023/01/05 12:03:03;;;;;;;0.30;0.20;;;;;;;;;;10350870;28;20077;-76
2023/01/05 12:08:10;;;;;;;0.22;0.22;;;;;;;;;;10352537;28;20152;-76
2023/01/05 12:13:20;;;;;;;0.47;0.20;;;;;;;;;;10350526;28;20049;-76
2023/01/05 12:18:27;;;;;;;0.30;0.28;;;;;;;;;;10343965;28;20038;-75
2023/01/05 12:23:49;;;;;;;0.25;0.22;;;;;;;;;;10347901;28;20507;-75
2023/01/05 12:28:57;;;;;;;0.40;0.30;;;;;;;;;;10347720;28;20042;-75
2023/01/05 12:34:28;;;;;;;0.77;0.57;;;;;;;;;;10350196;28;20119;-77
2023/01/05 12:39:46;;;;;;;0.55;0.32;;;;;;;;;;10354342;28;20045;-77
2023/01/05 12:44:55;;;;;;;0.32;0.30;;;;;;;;;;10350188;28;20045;-74
2023/01/05 12:50:00;;;;;;;0.20;0.20;;;;;;;;;;10353763;28;20097;-74
2023/01/05 12:55:07;;;;;;;0.52;0.40;;;;;;;;;;10350971;28;20211;-74
2023/01/05 13:00:11;;;;;;;0.75;0.43;;;;;;;;;;10356588;28;20050;-74
2023/01/05 13:05:16;;;;;;;0.38;0.20;;;;;;;;;;10351003;28;20170;-75
2023/01/05 13:10:22;;;;;;;1.65;0.20;;;;;;;;;;10348848;28;20072;-76
2023/01/05 13:15:28;;;;;;;0.20;0.20;;;;;;;;;;10345984;28;20034;-75
2023/01/05 13:20:35;;;;;;;0.45;0.45;;;;;;;;;;10346660;28;20046;-75
2023/01/05 13:25:45;;;;;;;1.40;0.30;;;;;;;;;;10351075;28;20057;-75
2023/01/05 13:30:59;;;;;;;0.43;0.32;;;;;;;;;;10349359;28;20050;-76
2023/01/05 13:36:07;;;;;;;1.20;0.40;;;;;;;;;;10349006;28;20060;-76
2023/01/05 13:41:22;;;;;;;0.98;0.40;;;;;;;;;;10348953;28;20050;-76
2023/01/05 13:46:45;;;;;;;2.40;0.38;;;;;;;;;;10345995;28;20068;-74
2023/01/05 13:51:55;;;;;;;0.52;0.50;;;;;;;;;;10350066;28;20520;-74
2023/01/05 13:56:59;;;;;;;0.60;0.60;;;;;;;;;;10346631;28;20072;-74
2023/01/05 14:02:02;;;;;;;;;;;;;;;;;;10350056;28;20053;-74
2023/01/05 14:07:06;;;;;;;0.40;0.40;;;;;;;;;;10347858;28;20283;-75
2023/01/05 14:12:39;;;;;;;1.95;0.32;;;;;;;;;;10360719;28;20103;-76
2023/01/05 14:17:53;;;;;;;1.23;0.55;;;;;;;;;;10347391;28;20036;-75
2023/01/05 14:22:56;;;;;;;0.70;0.60;;;;;;;;;;10348332;28;20046;-76
2023/01/05 14:28:18;;;;;;;2.97;1.20;;;;;;;;;;10346075;28;20046;-75
2023/01/05 14:33:22;;;;;;;4.15;1.50;;;;;;;;;;10365690;28;20258;-75
2023/01/05 14:38:25;;;;;;;6.00;1.55;;;;;;;;;;10346882;28;20046;-75
2023/01/05 14:43:30;;;;;;;1.92;1.38;;;;;;;;;;10339975;28;20047;-75
2023/01/05 14:48:36;;;;;;;2.10;1.30;;;;;;;;;;10349286;28;20049;-74
2023/01/05 14:53:39;;;;;;;4.65;1.65;;;;;;;;;;10347235;28;20093;-75
2023/01/05 14:58:59;;;;;;;6.07;1.40;;;;;;;;;;10340918;28;20533;-74
2023/01/05 15:04:07;;;;;;;7.85;1.90;;;;;;;;;;10346327;28;20046;-75
2023/01/05 15:09:18;;;;;;;4.22;1.80;;;;;;;;;;10343007;28;20107;-74
2023/01/05 15:14:33;;;;;;;3.72;1.70;;;;;;;;;;10341182;28;20062;-75
2023/01/05 15:19:48;;;;;;;4.72;1.83;;;;;;;;;;10343758;28;20049;-75
2023/01/05 15:25:01;;;;;;;3.38;1.10;;;;;;;;;;10358468;28;20054;-74
2023/01/05 15:30:12;;;;;;;1.77;1.15;;;;;;;;;;10345005;28;20368;-76
2023/01/05 15:35:17;;;;;;;5.00;1.60;;;;;;;;;;10344116;28;20443;-74
2023/01/05 15:40:31;;;;;;;2.58;1.25;;;;;;;;;;10342679;28;20038;-74
2023/01/05 15:45:36;;;;;;;3.78;1.42;;;;;;;;;;10355366;28;20104;-74
2023/01/05 15:50:44;;;;;;;3.58;1.67;;;;;;;;;;10343175;28;20057;-74
2023/01/05 15:55:50;;;;;;;4.15;1.92;;;;;;;;;;10344752;28;20042;-75
2023/01/05 16:01:00;;;;;;;8.73;2.55;;;;;;;;;;10341155;28;20034;-74
2023/01/05 16:06:06;;;;;;;10.63;3.55;;;;;;;;;;10344999;28;20065;-75
2023/01/05 16:11:11;;;;;;;9.50;2.78;;;;;;;;;;10347024;28;20104;-75
2023/01/05 16:16:17;;;;;;;11.13;2.80;;;;;;;;;;10355841;28;20512;-74
2023/01/05 16:21:42;;;;;;;7.03;2.25;;;;;;;;;;10345373;28;20123;-76
2023/01/05 16:26:45;;;;;;;6.47;2.00;;;;;;;;;;10353253;28;20079;-73
2023/01/05 16:31:54;;;;;;;6.25;1.90;;;;;;;;;;10351128;28;20393;-75
2023/01/05 16:37:02;;;;;;;7.57;1.83;;;;;;;;;;10350957;28;20228;-74
2023/01/05 16:47:34;;;;;;;3.40;1.67;;;;;;;;;;10349365;28;20042;-78
2023/01/05 16:52:38;;;;;;;4.35;1.80;;;;;;;;;;10357183;28;20077;-75
2023/01/05 16:57:48;;;;;;;5.55;1.80;;;;;;;;;;10352383;28;20046;-75
2023/01/05 17:02:51;;;;;;;6.45;1.60;;;;;;;;;;10355364;28;20050;-75
2023/01/05 17:07:58;;;;;;;6.13;2.27;;;;;;;;;;10359511;28;20042;-75
2023/01/05 17:13:03;;;;;;;7.63;2.15;;;;;;;;;;10350941;28;20042;-74
2023/01/05 17:18:14;;;;;;;8.75;2.30;;;;;;;;;;10354293;28;20044;-75
2023/01/05 17:23:20;;;;;;;7.82;1.67;;;;;;;;;;10346377;28;20054;-75
2023/01/05 17:28:23;;;;;;;5.00;1.77;;;;;;;;;;10359670;28;20368;-75
2023/01/05 17:33:26;;;;;;;4.32;1.92;;;;;;;;;;10354032;28;20084;-75
2023/01/05 17:38:30;;;;;;;5.25;2.28;;;;;;;;;;10357477;28;20046;-75
2023/01/05 17:43:33;;;;;;;4.38;2.05;;;;;;;;;;10353278;28;20483;-75
2023/01/05 17:48:35;;;;;;;8.10;2.03;;;;;;;;;;10358484;28;20045;-75
2023/01/05 17:53:40;;;;;;;9.77;2.60;;;;;;;;;;10355432;28;20096;-74
2023/01/05 17:58:42;;;;;;;8.82;2.92;;;;;;;;;;10356962;28;20057;-74
2023/01/05 18:03:45;;;;;;;8.30;3.05;;;;;;;;;;10355254;28;20307;-74
2023/01/05 18:08:49;;;;;;;8.23;3.03;;;;;;;;;;10357655;28;20403;-74
2023/01/05 18:13:52;;;;;;;5.70;2.65;;;;;;;;;;10357652;28;20046;-75
2023/01/05 18:18:54;;;;;;;11.60;3.40;;;;;;;;;;10369517;28;20185;-76
2023/01/05 18:23:58;;;;;;;12.40;3.40;;;;;;;;;;10356662;28;20311;-75
2023/01/05 18:29:01;;;;;;;6.53;2.75;;;;;;;;;;10350501;28;20046;-75
2023/01/05 18:34:04;;;;;;;9.65;3.05;;;;;;;;;;10355222;28;20050;-75
2023/01/05 18:39:08;;;;;;;10.95;3.15;;;;;;;;;;10356692;28;20149;-74
2023/01/05 18:44:10;;;;;;;11.77;3.38;;;;;;;;;;10367718;28;20100;-74
2023/01/05 18:49:14;;;;;;;10.77;3.60;;;;;;;;;;10356403;28;20132;-75
2023/01/05 18:54:18;;;;;;;6.38;3.00;;;;;;;;;;10355180;28;20050;-76
2023/01/05 18:59:20;;;;;;;8.52;2.97;;;;;;;;;;10349340;28;20436;-76
2023/01/05 19:04:23;;;;;;;4.75;2.35;;;;;;;;;;10357064;28;20045;-75
2023/01/05 19:09:27;;;;;;;8.73;3.40;;;;;;;;;;10349979;28;20555;-75
2023/01/05 19:14:30;;;;;;;9.32;2.83;;;;;;;;;;10352929;28;20058;-76
2023/01/05 19:19:33;;;;;;;6.25;2.20;;;;;;;;;;10358488;28;20046;-75
2023/01/05 19:24:37;;;;;;;3.20;2.17;;;;;;;;;;10356242;28;20038;-75
2023/01/05 19:29:40;;;;;;;;;;;;;;;;;;10369108;28;20092;-75
2023/01/05 19:34:43;;;;;;;10.13;3.53;;;;;;;;;;10371755;28;19980;-75
2023/01/05 19:39:47;;;;;;;4.53;2.03;;;;;;;;;;10365836;28;20034;-74
2023/01/05 19:44:50;;;;;;;5.72;3.08;;;;;;;;;;10367033;28;20111;-76
2023/01/05 19:49:53;;;;;;;3.20;1.58;;;;;;;;;;10370496;28;20054;-74
2023/01/05 19:54:57;;;;;;;5.80;2.55;;;;;;;;;;10368149;28;20052;-75
2023/01/05 19:59:59;;;;;;;3.38;1.50;;;;;;;;;;10377704;28;20045;-75
2023/01/05 20:05:02;;;;;;;2.97;1.48;;;;;;;;;;10365105;28;20516;-77
2023/01/05 20:10:06;;;;;;;3.33;1.75;;;;;;;;;;10376480;28;20034;-77
2023/01/05 20:15:10;;;;;;;2.78;1.77;;;;;;;;;;10362019;28;20121;-77
2023/01/05 20:20:13;;;;;;;5.03;1.85;;;;;;;;;;10367741;28;20137;-75
2023/01/05 20:25:17;;;;;;;3.20;1.60;;;;;;;;;;10369307;28;20042;-75
2023/01/05 20:30:20;;;;;;;3.42;1.20;;;;;;;;;;10377984;28;20042;-76
2023/01/05 20:35:23;;;;;;;1.00;0.85;;;;;;;;;;10375338;28;20069;-77
2023/01/05 20:40:28;;;;;;;2.38;1.60;;;;;;;;;;10378304;28;20044;-75
2023/01/05 20:45:31;;;;;;;3.17;1.48;;;;;;;;;;10386565;28;20042;-77
2023/01/05 20:50:34;;;;;;;2.70;1.40;;;;;;;;;;10377192;28;20045;-77
2023/01/05 20:55:39;;;;;;;3.25;1.17;;;;;;;;;;10379238;28;20069;-76
2023/01/05 21:00:42;;;;;;;1.70;1.17;;;;;;;;;;10380222;28;20167;-76
2023/01/05 21:06:05;;;;;;;3.80;1.40;;;;;;;;;;10370516;28;20526;-76
2023/01/05 21:11:14;;;;;;;2.85;1.55;;;;;;;;;;10384534;28;20137;-76
2023/01/05 21:16:18;;;;;;;2.58;1.23;;;;;;;;;;10366942;28;20045;-77
2023/01/05 21:21:21;;;;;;;;;;;;;;;;;;10361772;28;20180;-76
2023/01/05 21:26:25;;;;;;;2.55;1.27;;;;;;;;;;10370881;28;19921;-76
2023/01/05 21:31:27;;;;;;;;;;;;;;;;;;10365073;28;20055;-76
2023/01/05 21:36:31;;;;;;;2.63;1.42;;;;;;;;;;10365154;28;19952;-75
2023/01/05 21:47:00;;;;;;;2.55;1.50;;;;;;;;;;10356364;28;20072;-80
2023/01/05 21:57:24;;;;;;;1.63;0.82;;;;;;;;;;10362240;28;20068;-76
2023/01/05 22:02:27;;;;;;;1.33;0.63;;;;;;;;;;10360466;28;20111;-75
2023/01/05 22:07:30;;;;;;;5.00;1.20;;;;;;;;;;10352316;28;20034;-76
2023/01/05 22:12:33;;;;;;;1.23;0.82;;;;;;;;;;10352643;28;20407;-75
2023/01/05 22:17:38;;;;;;;4.07;1.60;;;;;;;;;;10351901;28;20060;-76
2023/01/05 22:22:40;;;;;;;1.40;1.00;;;;;;;;;;10345665;28;20206;-77
2023/01/05 22:27:43;;;;;;;3.75;1.60;;;;;;;;;;10354499;28;20033;-76
2023/01/05 22:32:47;;;;;;;3.33;1.65;;;;;;;;;;10350468;28;20623;-75
2023/01/05 22:37:52;;;;;;;1.63;1.02;;;;;;;;;;10351111;28;20045;-76
2023/01/05 22:42:54;;;;;;;;;;;;;;;;;;10353483;28;20038;-79
2023/01/05 22:47:58;;;;;;;1.60;0.90;;;;;;;;;;10355689;28;19993;-76
2023/01/05 22:53:00;;;;;;;2.05;1.20;;;;;;;;;;10353327;28;20050;-78
2023/01/05 22:58:03;;;;;;;3.58;1.60;;;;;;;;;;10348238;28;20049;-76
2023/01/05 23:03:07;;;;;;;2.05;1.58;;;;;;;;;;10355110;28;20057;-76
2023/01/05 23:08:10;;;;;;;2.17;1.38;;;;;;;;;;10348657;28;20526;-75
2023/01/05 23:13:13;;;;;;;2.75;1.60;;;;;;;;;;10355152;28;20061;-75
2023/01/05 23:18:17;;;;;;;2.70;1.55;;;;;;;;;;10349118;28;20069;-76
2023/01/05 23:23:21;;;;;;;4.55;1.83;;;;;;;;;;10349259;28;20535;-76
2023/01/05 23:28:24;;;;;;;3.70;1.83;;;;;;;;;;10348742;28;20039;-74
2023/01/05 23:33:31;;;;;;;3.13;1.20;;;;;;;;;;10353310;28;20115;-75
2023/01/05 23:38:34;;;;;;;1.38;1.13;;;;;;;;;;10364610;28;20038;-76
2023/01/05 23:43:37;;;;;;;1.63;1.20;;;;;;;;;;10349549;28;20484;-75
2023/01/05 23:48:41;;;;;;;1.90;1.35;;;;;;;;;;10356131;28;20043;-76
2023/01/05 23:53:45;;;;;;;3.28;1.80;;;;;;;;;;10350410;28;20376;-75
2023/01/05 23:58:48;;;;;;;1.50;1.10;;;;;;;;;;10354228;28;20733;-75
